createdAt,value
2023-11-28T00:00:37.659Z,39.30
2023-11-28T00:03:04.587Z,38.50
2023-11-28T00:05:31.974Z,39.90
2023-11-28T00:08:01.475Z,40.10
2023-11-28T00:10:28.808Z,39.40
2023-11-28T00:12:55.638Z,41.20
2023-11-28T00:15:22.324Z,40.40
2023-11-28T00:17:49.243Z,41.20
2023-11-28T00:20:16.072Z,41.40
2023-11-28T00:22:43.328Z,40.50
2023-11-28T00:25:10.068Z,41.50
2023-11-28T00:27:36.803Z,40.10
2023-11-28T00:30:04.167Z,41.30
2023-11-28T00:32:31.437Z,43.90
2023-11-28T00:34:58.280Z,42.20
2023-11-28T00:37:25.130Z,41.30
2023-11-28T00:39:51.883Z,42.60
2023-11-28T00:42:18.963Z,41.40
2023-11-28T00:44:46.057Z,41.40
2023-11-28T00:47:13.794Z,39.70
2023-11-28T00:49:44.317Z,40.00
2023-11-28T00:52:12.428Z,38.20
2023-11-28T00:54:39.595Z,39.30
2023-11-28T00:57:07.153Z,40.80
2023-11-28T00:59:33.938Z,40.90
2023-11-28T01:02:01.967Z,40.80
2023-11-28T01:04:29.009Z,37.50
2023-11-28T01:06:55.856Z,38.60
2023-11-28T01:09:22.565Z,40.00
2023-11-28T01:11:49.350Z,40.30
2023-11-28T01:14:16.054Z,38.30
2023-11-28T01:16:46.642Z,37.60
2023-11-28T01:19:14.438Z,39.40
2023-11-28T01:21:41.218Z,39.00
2023-11-28T01:24:07.935Z,38.10
2023-11-28T01:26:34.620Z,39.00
2023-11-28T01:29:01.354Z,38.90
2023-11-28T01:31:29.447Z,39.00
2023-11-28T01:33:56.382Z,38.50
2023-11-28T01:36:23.104Z,36.20
2023-11-28T01:38:49.795Z,39.30
2023-11-28T01:41:16.492Z,39.50
2023-11-28T01:43:43.183Z,39.00
2023-11-28T01:46:12.424Z,40.60
2023-11-28T01:48:39.940Z,42.10
2023-11-28T01:51:07.412Z,41.10
2023-11-28T01:53:34.768Z,43.30
2023-11-28T01:56:02.234Z,44.30
2023-11-28T01:58:30.005Z,41.90
2023-11-28T02:00:57.142Z,42.70
2023-11-28T02:03:27.773Z,40.40
2023-11-28T02:05:55.172Z,39.20
2023-11-28T02:08:21.866Z,38.70
2023-11-28T02:10:51.089Z,38.00
2023-11-28T02:13:17.960Z,44.20
2023-11-28T02:15:46.867Z,42.90
2023-11-28T02:18:15.473Z,40.80
2023-11-28T02:20:42.504Z,41.30
2023-11-28T02:23:10.110Z,56.20
2023-11-28T02:25:51.801Z,57.80
2023-11-28T02:28:20.059Z,44.00
2023-11-28T02:30:48.324Z,42.20
2023-11-28T02:33:15.974Z,39.80
2023-11-28T02:35:43.444Z,38.80
2023-11-28T02:38:10.367Z,38.70
2023-11-28T02:40:37.239Z,39.30
2023-11-28T02:43:04.079Z,39.20
2023-11-28T02:45:30.806Z,38.30
2023-11-28T02:47:57.524Z,39.70
2023-11-28T02:50:24.307Z,39.80
2023-11-28T02:52:51.109Z,39.30
2023-11-28T02:55:18.054Z,40.50
2023-11-28T02:57:48.563Z,46.80
2023-11-28T03:00:16.279Z,38.40
2023-11-28T03:02:43.233Z,38.60
2023-11-28T03:05:10.154Z,39.20
2023-11-28T03:07:37.155Z,42.70
2023-11-28T03:10:04.537Z,41.00
2023-11-28T03:12:31.236Z,40.50
2023-11-28T03:14:57.989Z,40.70
2023-11-28T03:17:30.881Z,40.20
2023-11-28T03:19:58.094Z,41.80
2023-11-28T03:22:24.980Z,40.20
2023-11-28T03:24:52.192Z,40.70
2023-11-28T03:27:22.265Z,41.50
2023-11-28T03:29:49.102Z,42.50
2023-11-28T03:32:15.942Z,42.80
2023-11-28T03:34:43.065Z,44.50
2023-11-28T03:37:10.189Z,42.90
2023-11-28T03:39:36.870Z,40.70
2023-11-28T03:42:03.634Z,45.10
2023-11-28T03:44:30.338Z,43.70
2023-11-28T03:46:57.076Z,46.70
2023-11-28T03:49:23.904Z,48.10
2023-11-28T03:51:50.618Z,47.60
2023-11-28T03:54:17.816Z,46.70
2023-11-28T03:56:44.551Z,46.70
2023-11-28T03:59:11.923Z,47.30
2023-11-28T04:01:38.809Z,50.90
2023-11-28T04:04:06.193Z,51.20
2023-11-28T04:06:33.093Z,50.10
2023-11-28T04:09:00.143Z,51.80
2023-11-28T04:11:26.833Z,49.50
2023-11-28T04:13:53.566Z,48.90
2023-11-28T04:16:20.470Z,48.40
2023-11-28T04:18:51.829Z,50.70
2023-11-28T04:21:21.081Z,50.30
2023-11-28T04:23:48.713Z,49.10
2023-11-28T04:26:16.292Z,49.00
2023-11-28T04:28:43.032Z,46.90
2023-11-28T04:31:20.714Z,49.10
2023-11-28T04:33:50.004Z,47.30
2023-11-28T04:36:16.922Z,45.80
2023-11-28T04:38:44.922Z,48.30
2023-11-28T04:41:13.734Z,47.10
2023-11-28T04:43:41.642Z,46.40
2023-11-28T04:46:09.601Z,42.60
2023-11-28T04:48:37.089Z,44.40
2023-11-28T04:51:04.472Z,46.20
2023-11-28T04:53:31.233Z,45.70
2023-11-28T04:55:58.012Z,45.40
2023-11-28T04:58:24.910Z,46.20
2023-11-28T05:00:52.094Z,44.80
2023-11-28T05:03:19.178Z,41.10
2023-11-28T05:05:46.805Z,43.10
2023-11-28T05:08:14.382Z,35.50
2023-11-28T05:10:41.354Z,37.10
2023-11-28T05:13:10.820Z,39.60
2023-11-28T05:15:38.252Z,37.70
2023-11-28T05:18:06.762Z,37.00
2023-11-28T05:20:35.103Z,36.50
2023-11-28T05:23:04.258Z,35.10
2023-11-28T05:25:32.180Z,36.10
2023-11-28T05:27:59.785Z,36.10
2023-11-28T05:30:26.873Z,33.80
2023-11-28T05:32:54.604Z,35.20
2023-11-28T05:35:23.138Z,36.40
2023-11-28T05:37:49.906Z,36.60
2023-11-28T05:40:17.737Z,38.80
2023-11-28T05:42:45.089Z,44.20
2023-11-28T05:45:11.898Z,42.90
2023-11-28T05:47:39.495Z,50.20
2023-11-28T05:50:08.496Z,52.00
2023-11-28T05:52:36.409Z,51.90
2023-11-28T05:55:05.468Z,52.70
2023-11-28T05:57:33.541Z,44.10
2023-11-28T06:00:00.424Z,40.60
2023-11-28T06:02:28.030Z,39.10
2023-11-28T06:04:54.999Z,41.30
2023-11-28T06:07:22.017Z,42.60
2023-11-28T06:09:48.904Z,42.20
2023-11-28T06:12:17.147Z,45.60
2023-11-28T06:14:43.909Z,42.40
2023-11-28T06:17:11.356Z,41.10
2023-11-28T06:19:39.700Z,39.50
2023-11-28T06:22:06.755Z,40.70
2023-11-28T06:24:33.993Z,43.40
2023-11-28T06:27:00.686Z,45.20
2023-11-28T06:29:27.379Z,47.10
2023-11-28T06:31:54.257Z,50.30
2023-11-28T06:34:21.481Z,54.70
2023-11-28T06:36:48.538Z,53.30
2023-11-28T06:39:16.116Z,60.70
2023-11-28T06:41:44.488Z,57.90
2023-11-28T06:44:13.026Z,56.60
2023-11-28T06:46:39.841Z,56.70
2023-11-28T06:49:06.757Z,47.80
2023-11-28T06:51:33.700Z,47.70
2023-11-28T06:54:00.444Z,43.40
2023-11-28T06:56:27.142Z,42.40
2023-11-28T06:58:54.110Z,45.20
2023-11-28T07:01:23.112Z,48.70
2023-11-28T07:03:50.984Z,53.30
2023-11-28T07:06:17.708Z,53.00
2023-11-28T07:08:44.472Z,54.40
2023-11-28T07:11:21.109Z,50.90
2023-11-28T07:13:48.969Z,51.00
2023-11-28T07:16:17.010Z,51.10
2023-11-28T07:18:44.476Z,54.00
2023-11-28T07:21:12.174Z,52.30
2023-11-28T07:23:39.956Z,51.50
2023-11-28T07:26:08.132Z,54.10
2023-11-28T07:28:35.235Z,55.80
2023-11-28T07:31:02.534Z,57.50
2023-11-28T07:33:29.856Z,56.90
2023-11-28T07:35:56.633Z,56.80
2023-11-28T07:38:25.806Z,49.50
2023-11-28T07:40:53.175Z,48.20
2023-11-28T07:43:20.251Z,49.10
2023-11-28T07:45:47.317Z,48.40
2023-11-28T07:48:14.235Z,52.70
2023-11-28T07:50:41.105Z,52.10
2023-11-28T07:53:07.844Z,52.10
2023-11-28T07:55:34.670Z,53.70
2023-11-28T07:58:03.756Z,48.60
2023-11-28T08:00:32.189Z,49.20
2023-11-28T08:02:59.045Z,48.00
2023-11-28T08:05:26.046Z,47.30
2023-11-28T08:07:52.895Z,47.30
2023-11-28T08:10:19.770Z,46.30
2023-11-28T08:12:46.510Z,46.70
2023-11-28T08:15:13.489Z,47.30
2023-11-28T08:17:42.159Z,46.90
2023-11-28T08:20:10.023Z,45.50
2023-11-28T08:22:36.864Z,45.60
2023-11-28T08:25:04.230Z,46.70
2023-11-28T08:27:30.963Z,46.60
2023-11-28T08:30:00.117Z,46.20
2023-11-28T08:34:54.930Z,44.50
2023-11-28T08:37:21.655Z,46.50
2023-11-28T08:39:49.496Z,46.60
2023-11-28T08:42:16.325Z,44.20
2023-11-28T08:44:43.642Z,44.80
2023-11-28T08:47:10.870Z,43.60
2023-11-28T08:49:37.859Z,44.20
2023-11-28T08:52:07.512Z,44.40
2023-11-28T08:54:43.067Z,43.80
2023-11-28T08:57:13.180Z,47.10
2023-11-28T08:59:41.538Z,42.80
2023-11-28T09:02:08.448Z,43.50
2023-11-28T09:04:35.679Z,42.70
2023-11-28T09:07:02.841Z,43.60
2023-11-28T09:09:29.785Z,45.10
2023-11-28T09:11:56.546Z,44.40
2023-11-28T09:14:23.378Z,43.70
2023-11-28T09:16:50.445Z,46.70
2023-11-28T09:19:17.378Z,49.40
2023-11-28T09:21:44.159Z,49.40
2023-11-28T09:24:10.884Z,45.90
2023-11-28T09:26:37.637Z,43.90
2023-11-28T09:29:04.630Z,45.70
2023-11-28T09:31:31.583Z,44.70
2023-11-28T09:34:01.140Z,41.90
2023-11-28T09:36:28.403Z,44.20
2023-11-28T09:38:59.984Z,41.20
2023-11-28T09:41:35.886Z,41.00
2023-11-28T09:44:08.005Z,44.20
2023-11-28T09:46:39.164Z,43.30
2023-11-28T09:49:08.917Z,43.80
2023-11-28T09:51:40.113Z,38.20
2023-11-28T09:54:08.568Z,43.60
2023-11-28T09:56:35.806Z,41.60
2023-11-28T09:59:04.269Z,41.40
2023-11-28T10:01:33.234Z,41.00
2023-11-28T10:04:02.209Z,43.40
2023-11-28T10:06:28.965Z,42.80
2023-11-28T10:09:01.824Z,41.20
2023-11-28T10:11:32.568Z,43.50
2023-11-28T10:13:59.258Z,41.60
2023-11-28T10:16:48.442Z,40.40
2023-11-28T10:19:15.538Z,41.90
2023-11-28T10:21:42.881Z,37.60
2023-11-28T10:24:10.775Z,40.30
2023-11-28T10:26:38.939Z,40.00
2023-11-28T10:29:06.804Z,40.10
2023-11-28T10:31:38.625Z,39.80
2023-11-28T10:34:09.892Z,36.80
2023-11-28T10:36:47.517Z,39.40
2023-11-28T10:39:16.894Z,36.60
2023-11-28T10:41:43.794Z,36.80
2023-11-28T10:44:10.762Z,37.00
2023-11-28T10:46:40.667Z,38.20
2023-11-28T10:51:35.410Z,43.80
2023-11-28T10:54:10.336Z,41.30
2023-11-28T10:56:48.104Z,37.30
2023-11-28T10:59:38.059Z,34.40
2023-11-28T11:02:06.363Z,34.40
2023-11-28T11:04:34.060Z,33.50
2023-11-28T11:07:01.364Z,33.20
2023-11-28T11:09:28.726Z,33.80
2023-11-28T11:11:57.769Z,30.10
2023-11-28T11:14:45.936Z,33.20
2023-11-28T11:17:31.502Z,38.00
2023-11-28T11:20:00.888Z,36.50
2023-11-28T11:22:31.505Z,34.50
2023-11-28T11:25:00.835Z,33.60
2023-11-28T11:27:30.937Z,37.00
2023-11-28T11:29:57.819Z,34.20
2023-11-28T11:32:24.941Z,37.10
2023-11-28T11:34:52.506Z,38.90
2023-11-28T11:37:20.365Z,35.00
2023-11-28T11:39:49.752Z,33.10
2023-11-28T11:42:25.414Z,37.70
2023-11-28T11:44:54.060Z,35.00
2023-11-28T11:47:23.589Z,32.40
2023-11-28T11:49:52.885Z,34.60
2023-11-28T11:52:21.616Z,32.10
2023-11-28T11:54:49.707Z,33.50
2023-11-28T11:57:16.611Z,34.40
2023-11-28T11:59:43.537Z,32.40
2023-11-28T12:02:10.598Z,34.40
2023-11-28T12:04:42.904Z,38.30
2023-11-28T12:07:12.913Z,42.70
2023-11-28T12:12:10.068Z,39.80
2023-11-28T12:14:37.963Z,43.60
2023-11-28T12:17:06.019Z,38.70
2023-11-28T12:19:33.956Z,32.60
2023-11-28T12:22:05.072Z,32.00
2023-11-28T12:24:34.727Z,31.80
2023-11-28T12:27:07.115Z,32.10
2023-11-28T12:29:36.258Z,33.50
2023-11-28T12:32:04.106Z,31.70
2023-11-28T12:34:32.975Z,31.60
2023-11-28T12:37:00.947Z,29.90
2023-11-28T12:39:29.983Z,29.90
2023-11-28T12:41:58.532Z,28.10
2023-11-28T12:44:30.200Z,28.20
2023-11-28T12:46:57.527Z,28.10
2023-11-28T12:49:26.201Z,27.90
2023-11-28T12:52:00.010Z,28.40
2023-11-28T12:54:27.154Z,29.30
2023-11-28T12:56:54.619Z,29.30
2023-11-28T12:59:25.834Z,29.20
2023-11-28T13:01:57.193Z,28.40
2023-11-28T13:04:25.516Z,34.40
2023-11-28T13:07:05.552Z,32.80
2023-11-28T13:09:40.784Z,31.80
2023-11-28T13:12:08.245Z,34.10
2023-11-28T13:14:36.392Z,34.60
2023-11-28T13:17:07.789Z,52.20
2023-11-28T13:19:36.367Z,33.30
2023-11-28T13:22:04.614Z,30.90
2023-11-28T13:24:31.464Z,32.80
2023-11-28T13:26:58.192Z,33.30
2023-11-28T13:29:25.375Z,28.20
2023-11-28T13:31:54.096Z,28.30
2023-11-28T13:34:21.378Z,29.20
2023-11-28T13:36:48.853Z,29.60
2023-11-28T13:39:16.981Z,29.10
2023-11-28T13:41:43.814Z,30.60
2023-11-28T13:44:10.735Z,30.60
2023-11-28T13:46:37.522Z,30.40
2023-11-28T13:49:04.321Z,28.20
2023-11-28T13:51:31.495Z,28.90
2023-11-28T13:53:58.541Z,28.10
2023-11-28T13:56:25.714Z,31.00
2023-11-28T13:58:52.696Z,32.40
2023-11-28T14:01:20.996Z,32.60
2023-11-28T14:03:48.109Z,33.80
2023-11-28T14:06:14.892Z,36.00
2023-11-28T14:08:41.634Z,34.80
2023-11-28T14:11:08.780Z,35.70
2023-11-28T14:13:36.993Z,36.50
2023-11-28T14:16:05.856Z,34.40
2023-11-28T14:18:33.106Z,34.00
2023-11-28T14:21:04.440Z,35.40
2023-11-28T14:23:33.348Z,36.40
2023-11-28T14:26:00.413Z,33.20
2023-11-28T14:28:27.303Z,35.10
2023-11-28T14:30:54.133Z,33.50
2023-11-28T14:33:21.452Z,32.60
2023-11-28T14:35:48.462Z,37.50
2023-11-28T14:38:15.614Z,38.70
2023-11-28T14:40:42.655Z,35.30
2023-11-28T14:43:09.485Z,36.30
2023-11-28T14:45:36.561Z,34.20
2023-11-28T14:48:03.654Z,35.70
2023-11-28T14:50:32.014Z,33.90
2023-11-28T14:52:59.463Z,35.70
2023-11-28T14:55:26.629Z,33.80
2023-11-28T14:57:55.193Z,37.00
2023-11-28T15:00:22.578Z,34.70
2023-11-28T15:02:49.821Z,34.10
2023-11-28T15:05:16.990Z,32.50
2023-11-28T15:07:44.056Z,35.40
2023-11-28T15:10:12.059Z,32.70
2023-11-28T15:12:39.110Z,31.80
2023-11-28T15:15:06.914Z,32.40
2023-11-28T15:17:34.699Z,33.50
2023-11-28T15:20:02.096Z,28.40
2023-11-28T15:22:30.348Z,29.70
2023-11-28T15:24:58.130Z,30.00
2023-11-28T15:27:25.739Z,29.70
2023-11-28T15:29:53.834Z,28.90
2023-11-28T15:32:21.045Z,29.60
2023-11-28T15:34:49.423Z,28.80
2023-11-28T15:37:16.400Z,26.90
2023-11-28T15:39:43.238Z,28.40
2023-11-28T15:42:11.230Z,27.60
2023-11-28T15:44:38.106Z,27.00
2023-11-28T15:47:04.905Z,27.90
2023-11-28T15:49:40.113Z,26.60
2023-11-28T15:52:15.353Z,28.40
2023-11-28T15:54:43.042Z,29.10
2023-11-28T15:57:12.486Z,30.50
2023-11-28T15:59:43.431Z,29.60
2023-11-28T16:02:12.348Z,27.50
2023-11-28T16:04:41.351Z,24.70
2023-11-28T16:07:09.281Z,28.00
2023-11-28T16:09:36.382Z,26.10
2023-11-28T16:12:03.760Z,26.30
2023-11-28T16:14:30.627Z,27.30
2023-11-28T16:16:58.544Z,28.80
2023-11-28T16:19:25.368Z,29.30
2023-11-28T16:21:52.573Z,29.40
2023-11-28T16:24:19.323Z,28.10
2023-11-28T16:26:47.134Z,29.80
2023-11-28T16:29:14.347Z,31.10
2023-11-28T16:31:41.172Z,30.70
2023-11-28T16:34:08.825Z,27.40
2023-11-28T16:36:35.911Z,27.80
2023-11-28T16:39:08.410Z,25.80
2023-11-28T16:41:38.185Z,26.80
2023-11-28T16:44:05.359Z,25.70
2023-11-28T16:46:32.544Z,28.10
2023-11-28T16:48:59.532Z,29.00
2023-11-28T16:51:27.662Z,30.20
2023-11-28T16:53:55.257Z,30.60
2023-11-28T16:56:23.149Z,32.00
2023-11-28T16:58:49.949Z,29.90
2023-11-28T17:01:20.795Z,28.60
2023-11-28T17:03:47.883Z,27.80
2023-11-28T17:06:15.513Z,27.80
2023-11-28T17:08:44.823Z,32.10
2023-11-28T17:11:12.795Z,32.20
2023-11-28T17:13:40.863Z,30.30
2023-11-28T17:16:08.538Z,29.20
2023-11-28T17:18:35.677Z,27.90
2023-11-28T17:21:04.396Z,27.50
2023-11-28T17:23:35.101Z,31.00
2023-11-28T17:26:02.594Z,28.90
2023-11-28T17:28:30.888Z,29.50
2023-11-28T17:30:58.020Z,28.40
2023-11-28T17:33:25.034Z,28.40
2023-11-28T17:35:52.208Z,29.10
2023-11-28T17:38:19.477Z,26.60
2023-11-28T17:40:46.470Z,28.70
2023-11-28T17:43:15.407Z,29.60
2023-11-28T17:45:42.484Z,28.00
2023-11-28T17:48:09.708Z,29.00
2023-11-28T17:50:36.809Z,32.40
2023-11-28T17:53:04.345Z,29.00
2023-11-28T17:55:32.402Z,31.40
2023-11-28T17:57:59.743Z,33.50
2023-11-28T18:00:26.638Z,32.30
2023-11-28T18:02:53.455Z,33.90
2023-11-28T18:05:21.673Z,32.10
2023-11-28T18:07:49.839Z,30.30
2023-11-28T18:10:16.787Z,29.70
2023-11-28T18:12:44.232Z,28.10
2023-11-28T18:15:25.553Z,30.50
2023-11-28T18:17:57.038Z,30.60
2023-11-28T18:20:24.296Z,27.90
2023-11-28T18:22:51.247Z,28.40
2023-11-28T18:25:17.964Z,29.20
2023-11-28T18:27:44.945Z,28.10
2023-11-28T18:30:12.551Z,32.80
2023-11-28T18:32:39.612Z,30.30
2023-11-28T18:35:07.216Z,29.80
2023-11-28T18:37:34.333Z,29.10
2023-11-28T18:40:01.235Z,30.70
2023-11-28T18:42:28.116Z,30.90
2023-11-28T18:44:55.644Z,32.40
2023-11-28T18:47:24.221Z,32.00
2023-11-28T18:49:51.231Z,30.30
2023-11-28T18:52:18.199Z,30.40
2023-11-28T18:54:44.940Z,31.60
2023-11-28T18:57:11.827Z,28.60
2023-11-28T18:59:39.365Z,31.10
2023-11-28T19:02:07.044Z,31.60
2023-11-28T19:04:34.215Z,32.30
2023-11-28T19:07:01.211Z,30.20
2023-11-28T19:09:28.798Z,29.40
2023-11-28T19:11:56.164Z,30.90
2023-11-28T19:14:23.102Z,29.70
2023-11-28T19:16:50.043Z,32.10
2023-11-28T19:19:16.859Z,34.90
2023-11-28T19:21:47.839Z,34.20
2023-11-28T19:24:14.718Z,33.50
2023-11-28T19:26:42.354Z,31.40
2023-11-28T19:29:09.475Z,30.30
2023-11-28T19:31:40.561Z,29.90
2023-11-28T19:34:08.872Z,29.80
2023-11-28T19:36:35.874Z,31.40
2023-11-28T19:39:02.710Z,32.70
2023-11-28T19:41:30.240Z,32.90
2023-11-28T19:43:57.189Z,30.50
2023-11-28T19:46:24.832Z,30.30
2023-11-28T19:48:51.883Z,31.50
2023-11-28T19:51:19.606Z,31.20
2023-11-28T19:53:46.491Z,31.10
2023-11-28T19:56:13.379Z,29.90
2023-11-28T19:58:41.088Z,31.60
2023-11-28T20:01:09.833Z,30.20
2023-11-28T20:03:42.246Z,34.10
2023-11-28T20:06:09.059Z,41.20
2023-11-28T20:08:37.091Z,63.20
2023-11-28T20:11:04.514Z,62.20
2023-11-28T20:13:31.803Z,50.50
2023-11-28T20:16:00.837Z,45.10
2023-11-28T20:18:29.191Z,50.00
2023-11-28T20:20:55.976Z,58.30
2023-11-28T20:23:22.854Z,57.90
2023-11-28T20:25:49.957Z,61.00
2023-11-28T20:28:18.860Z,49.60
2023-11-28T20:30:45.599Z,45.80
2023-11-28T20:33:12.402Z,52.10
2023-11-28T20:35:40.722Z,47.30
2023-11-28T20:38:07.809Z,42.30
2023-11-28T20:40:34.808Z,34.80
2023-11-28T20:43:03.678Z,35.20
2023-11-28T20:45:30.401Z,43.70
2023-11-28T20:47:57.100Z,40.20
2023-11-28T20:50:24.487Z,32.70
2023-11-28T20:52:51.776Z,30.60
2023-11-28T20:55:18.764Z,34.80
2023-11-28T20:57:45.508Z,38.60
2023-11-28T21:00:13.825Z,53.30
2023-11-28T21:02:40.832Z,45.40
2023-11-28T21:05:08.384Z,43.50
2023-11-28T21:07:35.477Z,50.30
2023-11-28T21:10:03.335Z,53.00
2023-11-28T21:12:30.592Z,82.50
2023-11-28T21:14:57.323Z,104.50
2023-11-28T21:17:24.032Z,84.00
2023-11-28T21:19:53.461Z,86.30
2023-11-28T21:22:20.301Z,66.50
2023-11-28T21:24:47.034Z,63.30
2023-11-28T21:27:15.604Z,63.50
2023-11-28T21:29:42.656Z,64.90
2023-11-28T21:32:09.455Z,48.70
2023-11-28T21:34:36.276Z,76.10
2023-11-28T21:37:03.254Z,49.40
2023-11-28T21:39:31.862Z,43.70
2023-11-28T21:41:59.359Z,38.60
2023-11-28T21:44:27.049Z,36.20
2023-11-28T21:46:58.440Z,37.50
2023-11-28T21:49:25.355Z,37.60
2023-11-28T21:51:52.317Z,37.40
2023-11-28T21:54:19.238Z,35.90
2023-11-28T21:56:47.230Z,33.10
2023-11-28T21:59:14.933Z,35.70
2023-11-28T22:01:41.683Z,38.20
2023-11-28T22:04:08.934Z,34.20
2023-11-28T22:06:35.868Z,32.90
2023-11-28T22:09:03.650Z,33.60
2023-11-28T22:11:35.000Z,33.80
2023-11-28T22:14:02.884Z,36.90
2023-11-28T22:16:30.401Z,38.10
2023-11-28T22:18:57.149Z,37.20
2023-11-28T22:21:26.790Z,38.40
2023-11-28T22:23:54.486Z,38.20
2023-11-28T22:26:21.394Z,38.50
2023-11-28T22:28:48.491Z,37.70
2023-11-28T22:31:15.349Z,35.80
2023-11-28T22:33:42.665Z,37.80
2023-11-28T22:36:09.733Z,40.20
2023-11-28T22:38:36.910Z,38.40
2023-11-28T22:41:03.841Z,38.30
2023-11-28T22:43:30.900Z,37.50
2023-11-28T22:45:59.705Z,38.10
2023-11-28T22:48:27.023Z,36.50
2023-11-28T22:50:54.177Z,36.60
2023-11-28T22:53:20.913Z,40.00
2023-11-28T22:55:48.832Z,37.60
2023-11-28T22:58:15.542Z,38.00
2023-11-28T23:00:44.155Z,36.70
2023-11-28T23:03:11.124Z,37.00
2023-11-28T23:05:39.087Z,36.50
2023-11-28T23:08:06.472Z,38.80
2023-11-28T23:10:33.150Z,40.10
2023-11-28T23:12:59.846Z,37.10
2023-11-28T23:15:26.763Z,38.00
2023-11-28T23:17:54.374Z,37.80
2023-11-28T23:20:21.431Z,40.20
2023-11-28T23:22:55.742Z,38.10
2023-11-28T23:25:25.692Z,39.90
2023-11-28T23:27:54.542Z,37.40
2023-11-28T23:30:23.137Z,36.20
2023-11-28T23:32:50.803Z,38.90
2023-11-28T23:35:18.363Z,37.60
2023-11-28T23:37:45.701Z,35.30
2023-11-28T23:40:13.109Z,36.60
2023-11-28T23:42:46.831Z,37.30
2023-11-28T23:45:17.878Z,36.00
2023-11-28T23:47:48.279Z,35.90
2023-11-28T23:50:15.944Z,37.70
2023-11-28T23:52:43.550Z,35.50
2023-11-28T23:55:10.775Z,35.80
2023-11-28T23:57:37.477Z,34.10
